EKEB

Details ICAO EKEB (EBJ)
Name Esbjerg
Region Denmark / Faroe Islands
Timezone Europe/Copenhagen (UTC+1.0)
Plans Departing 25
Arriving 34
Stats Elevation 97 ft / 30 m (AMSL)
Location 55.525990° 8.553721°
Runways 1
Magnetic Variation 2.309° E
Sunrise 2017-12-11 07:45:17 UTC / 2017-12-11 08:45:17 Local
Sunset 2017-12-11 14:55:41 UTC / 2017-12-11 15:55:41 Local
Advertisement - Login to hide

Runways

ID Width Length Bearing (true) Bearing (mag) Surface Threshold Offset Overrun Length
08 148 ft / 45 m 8,534 ft / 2,601 m 79.45° 77.14° Asphalt 0 ft / 0 m 0 ft / 0 m
26 148 ft / 45 m 8,534 ft / 2,601 m 259.49° 257.18° Asphalt 0 ft / 0 m 0 ft / 0 m

Approach Navaids

Runway Type Ident Frequency Range Bearing (true) Bearing (mag) Slope Elevation
08 Localiser OO 109.10 MHz 18 nm / 33 km 79.54° 77.23° - 97 ft / 30 m (AMSL)
08 Glidescope OO 109.10 MHz 10 nm / 19 km 79.47° 77.16° 3.00° 97 ft / 30 m (AMSL)
26 Localiser ES 110.30 MHz 18 nm / 33 km 259.42° 257.11° - 97 ft / 30 m (AMSL)
26 Glidescope ES 110.30 MHz 10 nm / 19 km 259.47° 257.16° 3.00° 97 ft / 30 m (AMSL)

Map

Weather


0- 5 10 15 20 25 30 35+ Temperature / ° C

Clouds and Precipitation
Forecast for 2017-12-12 00:00 UTC. Updated 21 minutes ago

Ground ~20,000 ft ~40,000 ft Winds

METAR

EKEB 112120Z AUTO 36010KT 9999NDV BKN006/// BKN100/// M01/M02 Q0987

TAF

Not found

Frequencies

Tower 120.15 MHz AFIS
Warning: Do not use this data for real-world aviation or navigation. No guarantee of current accuracy is given.